Hornersville, Missouri
Current Conditions -  °F | °C
As of 5:53 PM on Sunday 23 Nov 2014 (Local Time) from KHKA Reporting Station
Overcast Overcast  
Wind Chill: 64°   Ceiling: 3100
Heat Index: 64°   Visibility: 10mi
Dew Point: 57°   Wind: 7mph
Humidity: 78%   Direction: 230°SW
Pressure: 29.37"   Gusts: NA
Location:  36.04°N, 90.11°W
Report Text: KHKA 232353Z AUTO 23006KT 10SM FEW002 BKN031 OVC039 18/14 A2937 RMK AO2 RAE26 SLP943 P0001 60083 T01780139 10183 20172 51014 $
Loading
Personal Weather Stations






























Interactive Weather Map New forecast layout! Learn more

10-Day Weather Forecast

Advertisements
Track Severe Weather on mobile